createdAt,value
2018-11-11T00:00:25.071Z,4.79
2018-11-11T00:02:54.873Z,4.98
2018-11-11T00:05:24.198Z,5.07
2018-11-11T00:07:53.117Z,5.28
2018-11-11T00:10:21.964Z,5.48
2018-11-11T00:12:51.211Z,5.59
2018-11-11T00:15:21.255Z,5.72
2018-11-11T00:17:50.126Z,5.76
2018-11-11T00:20:19.397Z,5.80
2018-11-11T00:22:48.255Z,5.83
2018-11-11T00:25:17.106Z,5.91
2018-11-11T00:27:46.311Z,5.96
2018-11-11T00:30:16.500Z,5.99
2018-11-11T00:32:45.389Z,6.01
2018-11-11T00:35:14.275Z,6.03
2018-11-11T00:37:43.587Z,6.09
2018-11-11T00:40:14.682Z,6.11
2018-11-11T00:42:43.599Z,6.15
2018-11-11T00:45:14.111Z,6.15
2018-11-11T00:47:43.990Z,6.16
2018-11-11T00:50:13.295Z,6.22
2018-11-11T00:52:42.193Z,6.21
2018-11-11T00:55:13.533Z,6.19
2018-11-11T00:57:43.684Z,6.18
2018-11-11T01:00:14.071Z,6.21
2018-11-11T01:02:43.800Z,6.26
2018-11-11T01:05:13.719Z,6.27
2018-11-11T01:07:43.134Z,6.29
2018-11-11T01:10:14.810Z,6.36
2018-11-11T01:12:44.092Z,6.34
2018-11-11T01:15:15.034Z,6.39
2018-11-11T01:17:44.642Z,6.47
2018-11-11T01:20:17.274Z,6.52
2018-11-11T01:22:46.942Z,6.54
2018-11-11T01:25:16.937Z,6.58
2018-11-11T01:27:45.750Z,6.56
2018-11-11T01:30:14.662Z,6.59
2018-11-11T01:32:44.301Z,6.58
2018-11-11T01:35:14.718Z,6.56
2018-11-11T01:37:44.003Z,6.53
2018-11-11T01:40:12.994Z,6.56
2018-11-11T01:42:41.923Z,6.52
2018-11-11T01:45:15.061Z,6.42
2018-11-11T01:47:44.380Z,6.33
2018-11-11T01:50:13.606Z,6.27
2018-11-11T01:52:44.170Z,6.27
2018-11-11T01:55:14.288Z,6.27
2018-11-11T01:57:43.155Z,6.22
2018-11-11T02:00:18.724Z,6.22
2018-11-11T02:02:49.038Z,6.13
2018-11-11T02:05:17.907Z,6.04
2018-11-11T02:07:49.270Z,6.06
2018-11-11T02:10:18.853Z,6.05
2018-11-11T02:12:47.811Z,6.07
2018-11-11T02:15:18.377Z,6.08
2018-11-11T02:17:47.529Z,6.05
2018-11-11T02:20:17.466Z,6.04
2018-11-11T02:22:47.206Z,6.04
2018-11-11T02:25:16.467Z,6.07
2018-11-11T02:27:45.522Z,6.06
2018-11-11T02:30:15.694Z,6.06
2018-11-11T02:32:44.953Z,6.07
2018-11-11T02:35:14.189Z,6.08
2018-11-11T02:37:43.426Z,6.09
2018-11-11T02:40:14.412Z,6.12
2018-11-11T02:42:43.444Z,6.18
2018-11-11T02:45:13.495Z,6.24
2018-11-11T02:47:42.354Z,6.26
2018-11-11T02:50:13.591Z,6.24
2018-11-11T02:52:43.359Z,6.28
2018-11-11T02:55:12.719Z,6.29
2018-11-11T02:57:42.730Z,6.29
2018-11-11T03:00:20.138Z,6.27
2018-11-11T03:02:49.290Z,6.30
2018-11-11T03:05:18.869Z,6.30
2018-11-11T03:07:47.735Z,6.34
2018-11-11T03:10:19.209Z,6.36
2018-11-11T03:12:49.136Z,6.37
2018-11-11T03:15:18.310Z,6.42
2018-11-11T03:17:47.471Z,6.43
2018-11-11T03:20:16.830Z,6.44
2018-11-11T03:22:45.765Z,6.47
2018-11-11T03:25:16.034Z,6.50
2018-11-11T03:27:45.561Z,6.49
2018-11-11T03:30:21.139Z,6.50
2018-11-11T03:32:49.989Z,6.49
2018-11-11T03:35:19.219Z,6.51
2018-11-11T03:37:48.714Z,6.53
2018-11-11T03:40:19.106Z,6.51
2018-11-11T03:42:48.337Z,6.52
2018-11-11T03:45:18.433Z,6.54
2018-11-11T03:47:48.339Z,6.55
2018-11-11T03:50:17.235Z,6.57
2018-11-11T03:52:46.856Z,6.58
2018-11-11T03:55:15.758Z,6.58
2018-11-11T03:57:44.601Z,6.60
2018-11-11T04:00:14.804Z,6.61
2018-11-11T04:02:45.035Z,6.63
2018-11-11T04:05:15.286Z,6.66
2018-11-11T04:07:44.214Z,6.73
2018-11-11T04:10:15.784Z,6.74
2018-11-11T04:12:44.976Z,6.77
2018-11-11T04:15:15.735Z,6.77
2018-11-11T04:17:44.656Z,6.80
2018-11-11T04:20:14.794Z,6.81
2018-11-11T04:22:43.654Z,6.83
2018-11-11T04:25:13.249Z,6.84
2018-11-11T04:27:42.076Z,6.86
2018-11-11T04:30:12.058Z,6.88
2018-11-11T04:32:41.355Z,6.89
2018-11-11T04:35:10.674Z,6.89
2018-11-11T04:37:39.550Z,6.90
2018-11-11T04:40:10.824Z,6.91
2018-11-11T04:42:39.669Z,6.90
2018-11-11T04:45:11.198Z,6.91
2018-11-11T04:47:40.067Z,6.89
2018-11-11T04:50:11.266Z,6.88
2018-11-11T04:52:40.114Z,6.88
2018-11-11T04:55:09.542Z,6.88
2018-11-11T04:57:39.538Z,6.84
2018-11-11T05:00:09.870Z,6.84
2018-11-11T05:02:39.596Z,6.83
2018-11-11T05:05:11.442Z,6.81
2018-11-11T05:10:20.464Z,6.81
2018-11-11T05:12:49.613Z,6.80
2018-11-11T05:15:18.446Z,6.79
2018-11-11T05:17:47.992Z,6.81
2018-11-11T05:20:16.878Z,6.83
2018-11-11T05:22:47.291Z,6.86
2018-11-11T05:25:16.437Z,6.88
2018-11-11T05:27:45.609Z,6.89
2018-11-11T05:30:15.088Z,6.91
2018-11-11T05:32:44.057Z,6.91
2018-11-11T05:35:13.304Z,6.96
2018-11-11T05:37:42.984Z,6.95
2018-11-11T05:40:12.791Z,6.95
2018-11-11T05:42:42.843Z,6.94
2018-11-11T05:45:12.988Z,6.97
2018-11-11T05:47:42.531Z,7.03
2018-11-11T05:50:15.598Z,7.05
2018-11-11T05:52:46.043Z,7.10
2018-11-11T05:55:20.729Z,7.10
2018-11-11T05:57:49.541Z,7.13
2018-11-11T06:00:18.942Z,7.16
2018-11-11T06:02:47.768Z,7.19
2018-11-11T06:05:17.532Z,7.21
2018-11-11T06:07:46.344Z,7.22
2018-11-11T06:10:15.731Z,7.21
2018-11-11T06:12:44.635Z,7.18
2018-11-11T06:15:14.464Z,7.16
2018-11-11T06:17:44.393Z,7.16
2018-11-11T06:20:15.108Z,7.18
2018-11-11T06:22:43.968Z,7.19
2018-11-11T06:25:13.238Z,7.20
2018-11-11T06:27:42.114Z,7.21
2018-11-11T06:30:11.659Z,7.23
2018-11-11T06:32:40.499Z,7.20
2018-11-11T06:35:09.442Z,7.18
2018-11-11T06:37:38.903Z,7.17
2018-11-11T06:40:09.460Z,7.14
2018-11-11T06:42:39.908Z,7.12
2018-11-11T06:45:10.553Z,7.11
2018-11-11T06:47:40.357Z,7.08
2018-11-11T06:50:10.352Z,7.08
2018-11-11T06:52:39.894Z,7.08
2018-11-11T06:55:09.001Z,7.07
2018-11-11T06:57:38.399Z,7.11
2018-11-11T07:00:08.816Z,7.13
2018-11-11T07:02:40.361Z,7.12
2018-11-11T07:05:10.290Z,7.16
2018-11-11T07:07:40.321Z,7.12
2018-11-11T07:10:09.152Z,7.09
2018-11-11T07:12:38.005Z,7.06
2018-11-11T07:15:07.331Z,7.05
2018-11-11T07:17:36.179Z,7.03
2018-11-11T07:20:05.635Z,7.02
2018-11-11T07:22:36.374Z,7.02
2018-11-11T07:25:07.002Z,7.03
2018-11-11T07:27:36.106Z,7.04
2018-11-11T07:30:05.855Z,7.08
2018-11-11T07:32:34.683Z,7.16
2018-11-11T07:35:04.290Z,7.26
2018-11-11T07:37:34.553Z,7.30
2018-11-11T07:40:04.085Z,7.37
2018-11-11T07:42:33.305Z,7.43
2018-11-11T07:45:03.284Z,7.51
2018-11-11T07:47:33.076Z,7.55
2018-11-11T07:50:01.931Z,7.62
2018-11-11T07:52:30.778Z,7.66
2018-11-11T07:55:00.557Z,7.74
2018-11-11T07:57:29.367Z,7.78
2018-11-11T07:59:59.039Z,7.88
2018-11-11T08:02:27.882Z,7.91
2018-11-11T08:04:57.322Z,7.97
2018-11-11T08:07:28.291Z,8.02
2018-11-11T08:09:57.560Z,8.00
2018-11-11T08:12:26.427Z,8.03
2018-11-11T08:14:57.730Z,8.08
2018-11-11T08:17:30.490Z,8.15
2018-11-11T08:20:00.923Z,8.19
2018-11-11T08:22:30.770Z,8.30
2018-11-11T08:25:00.459Z,8.40
2018-11-11T08:27:29.330Z,8.50
2018-11-11T08:29:58.731Z,8.68
2018-11-11T08:32:27.725Z,8.88
2018-11-11T08:34:56.460Z,9.09
2018-11-11T08:37:25.782Z,9.29
2018-11-11T08:39:55.581Z,9.49
2018-11-11T08:42:24.439Z,9.68
2018-11-11T08:44:55.008Z,9.84
2018-11-11T08:47:23.868Z,9.82
2018-11-11T08:49:52.719Z,9.84
2018-11-11T08:52:22.137Z,9.95
2018-11-11T08:54:51.842Z,10.31
2018-11-11T08:57:20.838Z,10.44
2018-11-11T08:59:52.102Z,10.65
2018-11-11T09:02:21.975Z,10.71
2018-11-11T09:04:52.773Z,10.68
2018-11-11T09:07:21.799Z,10.62
2018-11-11T09:09:50.658Z,10.67
2018-11-11T09:12:24.289Z,10.62
2018-11-11T09:14:54.330Z,10.45
2018-11-11T09:17:27.237Z,10.29
2018-11-11T09:20:02.608Z,10.22
2018-11-11T09:22:32.155Z,10.19
2018-11-11T09:25:00.992Z,10.30
2018-11-11T09:27:30.179Z,10.48
2018-11-11T09:29:59.741Z,10.54
2018-11-11T09:32:29.670Z,10.70
2018-11-11T09:34:58.630Z,10.62
2018-11-11T09:37:27.886Z,10.52
2018-11-11T09:39:57.174Z,10.51
2018-11-11T09:42:27.939Z,10.46
2018-11-11T09:44:57.683Z,10.45
2018-11-11T09:47:29.271Z,10.36
2018-11-11T09:49:58.318Z,10.34
2018-11-11T09:52:28.128Z,10.35
2018-11-11T09:54:59.427Z,10.38
2018-11-11T09:57:28.658Z,10.36
2018-11-11T09:59:58.249Z,10.35
2018-11-11T10:02:27.264Z,10.33
2018-11-11T10:05:06.951Z,10.37
2018-11-11T10:07:50.892Z,10.42
2018-11-11T10:10:27.058Z,10.52
2018-11-11T10:15:05.658Z,10.57
2018-11-11T10:17:40.851Z,10.57
2018-11-11T10:21:23.314Z,10.51
2018-11-11T10:24:12.375Z,10.42
2018-11-11T10:26:53.402Z,10.44
2018-11-11T10:29:30.909Z,10.39
2018-11-11T10:32:14.664Z,10.42
2018-11-11T10:34:49.040Z,10.46
2018-11-11T10:37:56.580Z,10.47
2018-11-11T10:40:34.114Z,10.48
2018-11-11T10:43:10.112Z,10.68
2018-11-11T10:45:43.918Z,11.04
2018-11-11T10:48:15.089Z,11.18
2018-11-11T10:50:53.483Z,11.56
2018-11-11T10:53:26.468Z,11.75
2018-11-11T10:55:56.240Z,11.80
2018-11-11T10:58:27.424Z,11.89
2018-11-11T11:01:02.003Z,12.37
2018-11-11T11:03:31.603Z,12.82
2018-11-11T11:06:03.492Z,13.25
2018-11-11T11:08:32.651Z,13.31
2018-11-11T11:11:01.506Z,13.40
2018-11-11T11:13:33.728Z,13.52
2018-11-11T11:16:03.896Z,13.62
2018-11-11T11:18:33.589Z,13.53
2018-11-11T11:21:15.097Z,13.54
2018-11-11T11:23:44.842Z,13.40
2018-11-11T11:26:14.282Z,13.20
2018-11-11T11:28:46.157Z,12.92
2018-11-11T11:37:21.771Z,12.56
2018-11-11T11:39:51.233Z,12.33
2018-11-11T11:42:21.386Z,12.17
2018-11-11T11:44:51.827Z,12.12
2018-11-11T11:47:26.735Z,12.14
2018-11-11T11:49:56.732Z,12.11
2018-11-11T11:52:30.044Z,12.17
2018-11-11T11:55:01.235Z,12.17
2018-11-11T11:57:31.664Z,12.21
2018-11-11T12:00:00.619Z,12.17
2018-11-11T12:02:33.180Z,12.20
2018-11-11T12:05:02.792Z,12.17
2018-11-11T12:07:37.951Z,12.18
2018-11-11T12:10:10.569Z,12.28
2018-11-11T12:12:40.568Z,12.35
2018-11-11T12:15:11.201Z,12.50
2018-11-11T12:17:52.211Z,12.54
2018-11-11T12:20:24.116Z,12.45
2018-11-11T12:22:53.440Z,12.48
2018-11-11T12:25:25.679Z,12.48
2018-11-11T12:27:55.650Z,12.64
2018-11-11T12:30:27.762Z,12.76
2018-11-11T12:32:57.697Z,12.68
2018-11-11T12:35:27.402Z,12.75
2018-11-11T12:37:58.405Z,12.85
2018-11-11T12:40:28.199Z,12.91
2018-11-11T12:42:59.775Z,12.84
2018-11-11T12:45:31.709Z,12.79
2018-11-11T12:48:00.553Z,12.75
2018-11-11T12:50:35.934Z,12.73
2018-11-11T12:53:07.013Z,12.76
2018-11-11T12:55:41.227Z,12.75
2018-11-11T12:58:10.403Z,12.75
2018-11-11T13:00:42.197Z,12.71
2018-11-11T13:03:13.720Z,12.66
2018-11-11T13:05:48.671Z,12.66
2018-11-11T13:08:23.955Z,12.59
2018-11-11T13:10:55.052Z,12.51
2018-11-11T13:13:25.223Z,12.48
2018-11-11T13:15:54.108Z,12.43
2018-11-11T13:18:26.043Z,12.36
2018-11-11T13:20:56.401Z,12.31
2018-11-11T13:23:38.056Z,12.24
2018-11-11T13:26:09.093Z,12.22
2018-11-11T13:28:39.180Z,12.21
2018-11-11T13:31:10.543Z,12.18
2018-11-11T13:33:39.474Z,12.16
2018-11-11T13:36:09.254Z,12.12
2018-11-11T13:38:40.763Z,12.13
2018-11-11T13:41:12.794Z,12.12
2018-11-11T13:43:45.391Z,12.12
2018-11-11T13:46:14.394Z,12.03
2018-11-11T13:48:48.999Z,11.92
2018-11-11T13:53:55.277Z,11.73
2018-11-11T13:56:24.504Z,11.72
2018-11-11T13:58:55.303Z,11.70
2018-11-11T14:01:26.386Z,11.66
2018-11-11T14:03:57.108Z,11.54
2018-11-11T14:06:27.336Z,11.52
2018-11-11T14:08:56.613Z,11.47
2018-11-11T14:11:26.377Z,11.48
2018-11-11T14:13:58.510Z,11.43
2018-11-11T14:16:30.482Z,11.34
2018-11-11T14:18:59.821Z,11.26
2018-11-11T14:21:28.466Z,11.20
2018-11-11T14:23:57.373Z,11.13
2018-11-11T14:26:33.825Z,11.07
2018-11-11T14:29:04.368Z,11.02
2018-11-11T14:31:35.813Z,10.93
2018-11-11T14:34:06.475Z,10.81
2018-11-11T14:36:35.819Z,10.71
2018-11-11T14:39:07.373Z,10.61
2018-11-11T14:41:36.198Z,10.52
2018-11-11T14:47:52.156Z,10.24
2018-11-11T14:50:23.571Z,10.20
2018-11-11T14:52:54.878Z,10.15
2018-11-11T14:55:26.068Z,10.05
2018-11-11T14:57:56.041Z,10.01
2018-11-11T15:00:34.445Z,9.94
2018-11-11T15:03:48.184Z,9.86
2018-11-11T15:06:17.468Z,9.79
2018-11-11T15:08:52.723Z,9.73
2018-11-11T15:11:25.475Z,9.68
2018-11-11T15:13:55.637Z,9.61
2018-11-11T15:16:26.142Z,9.56
2018-11-11T15:18:55.040Z,9.49
2018-11-11T15:21:24.735Z,9.44
2018-11-11T15:23:58.794Z,9.37
2018-11-11T15:26:28.312Z,9.35
2018-11-11T15:28:58.010Z,9.31
2018-11-11T15:31:27.068Z,9.23
2018-11-11T15:34:01.470Z,9.19
2018-11-11T15:36:30.421Z,9.14
2018-11-11T15:38:59.327Z,9.09
2018-11-11T15:41:28.983Z,9.07
2018-11-11T15:43:59.663Z,9.08
2018-11-11T15:46:31.347Z,9.07
2018-11-11T15:49:00.196Z,9.06
2018-11-11T15:51:31.502Z,8.99
2018-11-11T15:54:01.704Z,8.92
2018-11-11T15:56:31.478Z,8.94
2018-11-11T15:59:06.304Z,8.91
2018-11-11T16:01:36.567Z,8.90
2018-11-11T16:04:09.300Z,8.86
2018-11-11T16:13:05.335Z,8.82
2018-11-11T16:15:45.602Z,8.82
2018-11-11T16:18:55.457Z,8.88
2018-11-11T16:22:02.546Z,8.85
2018-11-11T16:24:31.663Z,8.83
2018-11-11T16:27:01.274Z,8.77
2018-11-11T16:29:39.465Z,8.70
2018-11-11T16:32:08.346Z,8.62
2018-11-11T16:34:38.346Z,8.61
2018-11-11T16:37:08.304Z,8.68
2018-11-11T16:39:37.422Z,8.65
2018-11-11T16:42:24.047Z,8.59
2018-11-11T16:44:53.422Z,8.59
2018-11-11T16:47:22.479Z,8.58
2018-11-11T16:49:51.643Z,8.54
2018-11-11T16:52:24.133Z,8.52
2018-11-11T16:54:53.327Z,8.50
2018-11-11T16:57:24.674Z,8.52
2018-11-11T16:59:55.502Z,8.52
2018-11-11T17:02:31.286Z,8.50
2018-11-11T17:05:00.329Z,8.51
2018-11-11T17:07:29.863Z,8.51
2018-11-11T17:10:00.160Z,8.52
2018-11-11T17:12:28.993Z,8.49
2018-11-11T17:14:57.849Z,8.46
2018-11-11T17:17:29.790Z,8.45
2018-11-11T17:19:59.374Z,8.45
2018-11-11T17:22:28.324Z,8.39
2018-11-11T17:24:58.707Z,8.36
2018-11-11T17:27:30.395Z,8.36
2018-11-11T17:30:00.867Z,8.41
2018-11-11T17:32:32.151Z,8.37
2018-11-11T17:35:05.224Z,8.43
2018-11-11T17:37:40.473Z,8.48
2018-11-11T17:40:12.607Z,8.43
2018-11-11T17:42:42.634Z,8.45
2018-11-11T17:45:13.380Z,8.41
2018-11-11T17:47:45.408Z,8.36
2018-11-11T17:52:57.190Z,8.42
2018-11-11T17:55:28.433Z,8.42
2018-11-11T17:57:58.983Z,8.45
2018-11-11T18:00:38.796Z,8.47
2018-11-11T18:03:27.262Z,8.46
2018-11-11T18:05:57.330Z,8.51
2018-11-11T18:08:28.260Z,8.52
2018-11-11T18:10:58.312Z,8.51
2018-11-11T18:13:28.088Z,8.45
2018-11-11T18:16:04.931Z,8.45
2018-11-11T18:18:35.615Z,8.45
2018-11-11T18:21:09.592Z,8.41
2018-11-11T18:23:44.971Z,8.42
2018-11-11T18:26:14.000Z,8.47
2018-11-11T18:28:44.973Z,8.49
2018-11-11T18:31:15.072Z,8.53
2018-11-11T18:33:44.433Z,8.54
2018-11-11T18:36:13.687Z,8.55
2018-11-11T18:38:42.611Z,8.61
2018-11-11T18:41:11.614Z,8.63
2018-11-11T18:43:40.501Z,8.67
2018-11-11T18:46:10.798Z,8.70
2018-11-11T18:48:39.741Z,8.67
2018-11-11T18:51:12.801Z,8.80
2018-11-11T18:53:44.310Z,8.82
2018-11-11T18:56:13.156Z,8.84
2018-11-11T18:58:45.499Z,8.94
2018-11-11T19:07:24.970Z,8.93
2018-11-11T19:09:57.419Z,8.93
2018-11-11T19:12:26.694Z,8.95
2018-11-11T19:14:58.324Z,8.90
2018-11-11T19:17:29.874Z,8.91
2018-11-11T19:20:01.195Z,8.88
2018-11-11T19:23:34.379Z,8.88
2018-11-11T19:26:03.878Z,8.84
2018-11-11T19:28:33.090Z,8.83
2018-11-11T19:31:01.965Z,8.81
2018-11-11T19:33:30.833Z,8.79
2018-11-11T19:35:59.723Z,8.75
2018-11-11T19:38:29.613Z,8.71
2018-11-11T19:40:59.029Z,8.71
2018-11-11T19:43:30.397Z,8.75
2018-11-11T19:46:00.587Z,8.73
2018-11-11T19:48:32.092Z,8.72
2018-11-11T19:51:05.676Z,8.68
2018-11-11T19:53:35.083Z,8.67
2018-11-11T19:56:06.232Z,8.63
2018-11-11T19:58:35.815Z,8.62
2018-11-11T20:01:07.361Z,8.68
2018-11-11T20:03:39.556Z,8.67
2018-11-11T20:08:48.053Z,8.76
2018-11-11T20:11:17.911Z,8.82
2018-11-11T20:13:46.948Z,8.90
2018-11-11T20:16:16.351Z,8.90
2018-11-11T20:18:46.439Z,8.92
2018-11-11T20:21:17.321Z,8.83
2018-11-11T20:23:46.219Z,8.78
2018-11-11T20:26:16.932Z,8.83
2018-11-11T20:28:47.077Z,8.72
2018-11-11T20:31:18.123Z,8.72
2018-11-11T20:33:47.194Z,8.68
2018-11-11T20:36:16.664Z,8.65
2018-11-11T20:38:47.970Z,8.63
2018-11-11T20:41:19.390Z,8.61
2018-11-11T20:43:55.150Z,8.60
2018-11-11T20:46:27.611Z,8.65
2018-11-11T20:48:57.999Z,8.71
2018-11-11T20:51:30.843Z,8.75
2018-11-11T20:56:40.855Z,8.82
2018-11-11T20:59:11.942Z,8.86
2018-11-11T21:01:45.580Z,8.84
2018-11-11T21:04:17.431Z,8.81
2018-11-11T21:06:49.025Z,8.79
2018-11-11T21:09:27.102Z,8.75
2018-11-11T21:11:59.148Z,8.76
2018-11-11T21:14:29.365Z,8.78
2018-11-11T21:17:03.200Z,8.76
2018-11-11T21:19:42.080Z,8.82
2018-11-11T21:22:17.989Z,8.77
2018-11-11T21:24:47.805Z,8.63
2018-11-11T21:27:21.150Z,8.66
2018-11-11T21:29:51.547Z,8.72
2018-11-11T21:32:22.389Z,8.86
2018-11-11T21:34:55.400Z,8.92
2018-11-11T21:37:26.467Z,8.89
2018-11-11T21:39:59.755Z,8.92
2018-11-11T21:42:33.390Z,8.96
2018-11-11T21:45:02.630Z,9.02
2018-11-11T21:47:32.327Z,9.20
2018-11-11T21:50:06.820Z,9.26
2018-11-11T21:52:39.534Z,9.43
2018-11-11T21:55:11.759Z,9.63
2018-11-11T21:57:41.464Z,9.74
2018-11-11T22:00:14.360Z,9.67
2018-11-11T22:02:46.536Z,9.61
2018-11-11T22:05:16.581Z,9.53
2018-11-11T22:07:47.387Z,9.52
2018-11-11T22:10:16.954Z,9.47
2018-11-11T22:12:53.272Z,9.48
2018-11-11T22:15:22.788Z,9.43
2018-11-11T22:17:51.947Z,9.51
2018-11-11T22:20:23.425Z,9.59
2018-11-11T22:22:52.311Z,9.72
2018-11-11T22:25:22.590Z,9.91
2018-11-11T22:27:54.345Z,10.05
2018-11-11T22:30:23.265Z,10.25
2018-11-11T22:32:52.134Z,10.20
2018-11-11T22:35:26.590Z,10.25
2018-11-11T22:37:56.744Z,10.23
2018-11-11T22:40:25.621Z,10.20
2018-11-11T22:42:56.327Z,10.16
2018-11-11T22:45:25.196Z,10.23
2018-11-11T22:47:54.109Z,10.20
2018-11-11T22:50:22.977Z,10.32
2018-11-11T22:52:52.206Z,10.50
2018-11-11T22:55:22.034Z,10.60
2018-11-11T22:57:53.577Z,10.63
2018-11-11T23:00:28.134Z,10.64
2018-11-11T23:02:57.324Z,10.63
2018-11-11T23:05:26.420Z,10.73
2018-11-11T23:07:55.326Z,10.74
2018-11-11T23:10:24.149Z,10.78
2018-11-11T23:12:53.047Z,10.88
2018-11-11T23:15:22.705Z,10.86
2018-11-11T23:17:53.595Z,10.91
2018-11-11T23:20:22.395Z,10.98
2018-11-11T23:22:51.898Z,11.08
2018-11-11T23:25:20.753Z,11.11
2018-11-11T23:27:49.641Z,11.10
2018-11-11T23:30:21.644Z,11.07
2018-11-11T23:32:51.231Z,11.06
2018-11-11T23:35:20.066Z,10.93
2018-11-11T23:37:49.318Z,11.00
2018-11-11T23:40:19.225Z,11.03
2018-11-11T23:42:48.697Z,10.97
2018-11-11T23:45:19.091Z,10.91
2018-11-11T23:47:48.501Z,10.85
2018-11-11T23:50:18.692Z,10.78
2018-11-11T23:52:47.978Z,10.77
2018-11-11T23:55:19.617Z,10.79
2018-11-11T23:57:48.731Z,10.84
